Time;durP1;ratioP1;P1;durP2;ratioP2;P2;SDS_P1;SDS_P2;PMS_P1;PMS_P2;Temp;Humidity;BMP_temperature;BMP_pressure;BME280_temperature;BME280_humidity;BME280_pressure;Samples;Min_cycle;Max_cycle;Signal;HPM_P1;HPM_P2
2022/10/24 00:02:08;;;;;;;19.70;15.80;;;15.40;1.00;;;;;;5042486;28;20196;-59
2022/10/24 00:04:38;;;;;;;20.33;17.57;;;15.30;1.00;;;;;;5045644;28;20185;-59
2022/10/24 00:07:05;;;;;;;18.30;15.83;;;15.30;1.00;;;;;;5041889;28;20994;-59
2022/10/24 00:09:31;;;;;;;18.67;16.40;;;15.30;1.00;;;;;;5043464;28;20455;-59
2022/10/24 00:11:58;;;;;;;21.10;17.40;;;15.10;1.00;;;;;;5043100;28;20959;-60
2022/10/24 00:14:24;;;;;;;20.53;18.30;;;15.10;1.00;;;;;;5043329;28;20428;-60
2022/10/24 00:16:49;;;;;;;17.47;15.67;;;15.10;1.00;;;;;;5043796;28;20432;-60
2022/10/24 00:19:15;;;;;;;30.90;17.93;;;15.10;1.00;;;;;;5051480;28;20452;-60
2022/10/24 00:21:41;;;;;;;25.33;17.77;;;15.10;1.00;;;;;;5048863;28;20675;-59
2022/10/24 00:24:07;;;;;;;20.20;16.80;;;15.30;1.00;;;;;;5046920;28;20191;-59
2022/10/24 00:26:33;;;;;;;20.80;16.90;;;15.10;1.00;;;;;;5045847;28;20207;-58
2022/10/24 00:28:59;;;;;;;20.87;18.07;;;15.10;1.00;;;;;;5044877;28;20903;-59
2022/10/24 00:31:26;;;;;;;23.40;18.40;;;15.10;1.00;;;;;;5044145;28;20432;-59
2022/10/24 00:33:52;;;;;;;21.70;17.07;;;15.20;1.00;;;;;;5045925;28;20410;-59
2022/10/24 00:36:20;;;;;;;18.83;16.83;;;15.30;1.00;;;;;;5041167;28;20940;-59
2022/10/24 00:38:47;;;;;;;20.07;16.30;;;15.30;1.00;;;;;;5048164;28;20185;-59
2022/10/24 00:41:18;;;;;;;19.40;16.13;;;15.20;1.00;;;;;;5042061;28;20428;-59
2022/10/24 00:43:44;;;;;;;18.90;15.60;;;15.20;1.00;;;;;;5041445;28;20467;-59
2022/10/24 00:46:10;;;;;;;20.97;18.13;;;15.20;1.00;;;;;;5045529;28;20989;-58
2022/10/24 00:48:52;;;;;;;21.80;16.20;;;15.20;1.00;;;;;;5045797;28;20461;-59
2022/10/24 00:51:29;;;;;;;20.13;17.10;;;15.30;1.00;;;;;;5046516;28;20453;-59
2022/10/24 00:54:08;;;;;;;19.10;14.80;;;15.20;1.00;;;;;;5041867;28;20433;-59
2022/10/24 00:56:40;;;;;;;17.27;15.47;;;15.30;1.00;;;;;;5055475;28;20437;-59
2022/10/24 00:59:08;;;;;;;18.10;15.87;;;15.30;1.00;;;;;;5046042;28;20433;-60
2022/10/24 01:01:34;;;;;;;18.60;15.17;;;15.30;1.00;;;;;;5045817;28;20458;-59
2022/10/24 01:04:00;;;;;;;18.37;14.60;;;15.40;1.00;;;;;;5043643;28;20494;-59
2022/10/24 01:06:47;;;;;;;15.87;14.00;;;15.40;1.00;;;;;;5047901;28;20605;-59
2022/10/24 01:09:25;;;;;;;15.70;14.00;;;15.40;1.00;;;;;;5038376;28;20431;-58
2022/10/24 01:12:25;;;;;;;21.30;14.30;;;15.40;1.00;;;;;;5045740;28;20532;-59
2022/10/24 01:15:19;;;;;;;15.50;13.70;;;15.50;1.00;;;;;;5035798;28;20436;-60
2022/10/24 01:17:51;;;;;;;15.17;13.57;;;15.40;1.00;;;;;;5046645;28;20571;-58
2022/10/24 01:20:38;;;;;;;16.80;14.00;;;15.40;1.00;;;;;;5053320;28;20430;-59
2022/10/24 01:23:25;;;;;;;16.93;13.67;;;15.40;1.00;;;;;;5050384;28;20465;-58
2022/10/24 01:26:15;;;;;;;19.23;14.27;;;15.50;1.00;;;;;;5049568;28;20441;-59
2022/10/24 01:29:04;;;;;;;15.03;12.73;;;15.60;1.00;;;;;;5047852;28;20445;-59
2022/10/24 01:31:53;;;;;;;14.70;13.03;;;15.60;1.00;;;;;;5049774;28;20440;-59
2022/10/24 01:34:21;;;;;;;19.93;13.17;;;15.70;1.00;;;;;;5050392;28;20448;-59
2022/10/24 01:37:02;;;;;;;18.73;13.43;;;15.60;1.00;;;;;;5052767;28;20924;-59
2022/10/24 01:39:33;;;;;;;15.00;13.40;;;15.60;1.00;;;;;;5044337;28;20803;-60
2022/10/24 01:42:02;;;;;;;16.27;14.33;;;15.50;1.00;;;;;;5044291;28;20443;-59
2022/10/24 01:44:36;;;;;;;15.23;13.07;;;15.50;1.00;;;;;;5050205;28;20490;-60
2022/10/24 01:47:11;;;;;;;15.60;12.77;;;15.50;1.00;;;;;;5048282;28;20469;-59
2022/10/24 01:49:39;;;;;;;17.93;14.37;;;15.40;1.00;;;;;;5047193;28;20951;-59
2022/10/24 01:52:10;;;;;;;14.00;12.53;;;15.50;1.00;;;;;;5047681;28;20561;-61
2022/10/24 01:54:37;;;;;;;15.77;13.30;;;15.40;1.00;;;;;;5049671;28;20442;-59
2022/10/24 01:57:04;;;;;;;20.17;13.77;;;15.40;1.00;;;;;;5047134;28;20943;-59
2022/10/24 01:59:29;;;;;;;16.03;14.33;;;15.30;1.00;;;;;;5048268;28;20427;-58
2022/10/24 02:01:58;;;;;;;16.60;14.13;;;15.40;1.00;;;;;;5052272;28;20420;-58
2022/10/24 02:04:26;;;;;;;16.50;14.20;;;15.40;1.00;;;;;;5047529;28;20194;-59
2022/10/24 02:06:54;;;;;;;15.27;13.60;;;15.40;1.00;;;;;;5051873;28;20469;-59
2022/10/24 02:09:21;;;;;;;20.97;15.40;;;15.40;1.00;;;;;;5049980;28;20807;-59
2022/10/24 02:11:47;;;;;;;17.80;14.30;;;15.40;1.00;;;;;;5045290;28;20515;-59
2022/10/24 02:14:37;;;;;;;15.80;13.83;;;15.40;1.00;;;;;;5046342;28;21086;-59
2022/10/24 02:17:05;;;;;;;18.30;15.03;;;15.30;1.00;;;;;;5049722;28;20462;-59
2022/10/24 02:19:31;;;;;;;15.93;14.33;;;15.30;1.00;;;;;;5049634;28;20428;-59
2022/10/24 02:22:21;;;;;;;16.27;14.40;;;15.20;1.00;;;;;;5047812;28;20448;-58
2022/10/24 02:25:05;;;;;;;17.43;14.90;;;15.20;1.00;;;;;;5048086;28;20440;-59
2022/10/24 02:27:36;;;;;;;16.50;14.80;;;15.20;1.00;;;;;;5046523;28;20492;-60
2022/10/24 02:30:04;;;;;;;20.67;15.83;;;15.20;1.00;;;;;;5044168;28;20443;-59
2022/10/24 02:32:34;;;;;;;19.80;14.50;;;15.20;1.00;;;;;;5045906;28;20489;-58
2022/10/24 02:35:02;;;;;;;16.33;14.23;;;15.20;1.00;;;;;;5048191;28;20410;-59
2022/10/24 02:37:31;;;;;;;15.57;13.90;;;15.20;1.00;;;;;;5046039;28;20426;-59
2022/10/24 02:39:59;;;;;;;16.60;14.03;;;15.10;1.00;;;;;;5045660;28;21071;-58
2022/10/24 02:42:27;;;;;;;16.80;14.27;;;15.00;1.00;;;;;;5045448;28;20449;-60
2022/10/24 02:44:53;;;;;;;17.50;14.33;;;15.10;1.00;;;;;;5049827;28;20474;-59
2022/10/24 02:47:21;;;;;;;15.53;13.73;;;15.10;1.00;;;;;;5048974;28;22249;-58
2022/10/24 02:49:47;;;;;;;16.50;14.80;;;15.10;1.00;;;;;;5050168;28;20422;-60
2022/10/24 02:52:13;;;;;;;19.60;13.57;;;15.10;1.00;;;;;;5045621;28;20943;-58
2022/10/24 02:54:39;;;;;;;16.97;14.43;;;15.00;1.00;;;;;;5046303;28;20860;-58
2022/10/24 02:57:04;;;;;;;16.27;13.50;;;15.00;1.00;;;;;;5063092;28;20449;-59
2022/10/24 02:59:30;;;;;;;16.67;13.60;;;15.10;1.00;;;;;;5047319;28;20595;-59
2022/10/24 03:01:56;;;;;;;15.43;13.57;;;15.10;1.00;;;;;;5046031;28;20189;-59
2022/10/24 03:04:21;;;;;;;24.70;15.10;;;15.10;1.00;;;;;;5044489;28;20191;-60
2022/10/24 03:06:48;;;;;;;18.40;13.70;;;15.20;1.00;;;;;;5045281;28;20710;-58
2022/10/24 03:09:13;;;;;;;18.80;13.77;;;15.20;1.00;;;;;;5049037;28;20196;-59
2022/10/24 03:11:39;;;;;;;17.03;12.87;;;15.20;1.00;;;;;;5045974;28;20473;-60
2022/10/24 03:14:05;;;;;;;19.90;16.10;;;15.20;1.00;;;;;;5048013;28;20202;-59
2022/10/24 03:16:30;;;;;;;16.93;13.40;;;15.20;1.00;;;;;;5044628;28;20201;-59
2022/10/24 03:18:56;;;;;;;18.87;14.30;;;15.20;1.00;;;;;;5045206;28;20675;-58
2022/10/24 03:21:22;;;;;;;15.93;13.27;;;15.20;1.00;;;;;;5049368;28;20420;-59
2022/10/24 03:23:47;;;;;;;18.10;13.30;;;15.30;1.00;;;;;;5044489;28;20279;-59
2022/10/24 03:26:13;;;;;;;19.20;14.37;;;15.20;1.00;;;;;;5050335;28;20663;-59
2022/10/24 03:28:39;;;;;;;18.67;13.87;;;15.20;1.00;;;;;;5046237;28;20728;-59
2022/10/24 03:31:05;;;;;;;19.60;15.37;;;15.20;1.00;;;;;;5049047;28;20181;-59
2022/10/24 03:33:30;;;;;;;19.13;14.47;;;15.30;1.00;;;;;;5044060;28;20617;-59
2022/10/24 03:35:57;;;;;;;20.73;14.10;;;15.20;1.00;;;;;;5046311;28;20461;-60
2022/10/24 03:38:23;;;;;;;19.57;14.97;;;15.20;1.00;;;;;;5041414;28;20191;-58
2022/10/24 03:40:49;;;;;;;19.20;15.10;;;15.20;1.00;;;;;;5042877;28;20518;-58
2022/10/24 03:43:15;;;;;;;19.40;16.03;;;15.10;1.00;;;;;;5058504;28;20578;-58
2022/10/24 03:45:40;;;;;;;19.23;15.60;;;15.10;1.00;;;;;;5048285;28;20478;-58
2022/10/24 03:48:06;;;;;;;17.23;15.23;;;15.00;1.00;;;;;;5050750;28;20195;-58
2022/10/24 03:50:32;;;;;;;23.87;16.63;;;15.00;1.00;;;;;;5050449;28;20521;-58
2022/10/24 03:52:58;;;;;;;17.10;15.30;;;15.10;1.00;;;;;;5054313;28;20264;-60
2022/10/24 03:55:24;;;;;;;23.10;16.30;;;15.20;1.00;;;;;;5046641;28;20442;-60
2022/10/24 03:57:49;;;;;;;21.63;17.03;;;15.10;1.00;;;;;;5048348;28;20466;-59
2022/10/24 04:00:17;;;;;;;21.27;15.63;;;15.00;1.00;;;;;;5043123;28;20224;-60
2022/10/24 04:02:42;;;;;;;20.13;16.10;;;14.90;1.00;;;;;;5046132;28;20191;-60
2022/10/24 04:05:08;;;;;;;21.17;15.20;;;14.80;1.00;;;;;;5046372;28;20432;-60
2022/10/24 04:07:34;;;;;;;19.97;16.27;;;14.80;1.00;;;;;;5045305;28;20303;-60
2022/10/24 04:09:59;;;;;;;21.37;17.20;;;14.80;1.00;;;;;;5045569;28;20201;-60
2022/10/24 04:12:25;;;;;;;20.40;17.53;;;14.80;1.00;;;;;;5045384;28;20281;-60
2022/10/24 04:14:50;;;;;;;19.73;16.57;;;14.70;1.00;;;;;;5040629;28;20199;-60
2022/10/24 04:17:16;;;;;;;19.90;15.30;;;14.70;1.00;;;;;;5040495;28;20185;-59
2022/10/24 04:19:42;;;;;;;19.67;16.30;;;14.70;1.00;;;;;;5044308;28;20679;-60
2022/10/24 04:22:07;;;;;;;17.13;15.30;;;14.70;1.00;;;;;;5047419;28;20195;-59
2022/10/24 04:24:33;;;;;;;22.33;17.40;;;14.60;1.00;;;;;;5046695;28;20284;-59
2022/10/24 04:26:59;;;;;;;19.20;16.10;;;14.60;1.00;;;;;;5048655;28;20745;-59
2022/10/24 04:29:24;;;;;;;18.80;16.80;;;14.60;1.00;;;;;;5047663;28;20652;-58
2022/10/24 04:31:50;;;;;;;20.80;16.10;;;14.60;1.00;;;;;;5047988;28;20240;-59
2022/10/24 04:34:16;;;;;;;17.60;15.00;;;14.60;1.00;;;;;;5047668;28;20252;-59
2022/10/24 04:36:41;;;;;;;21.73;16.17;;;14.50;1.00;;;;;;5049876;28;20191;-60
2022/10/24 04:39:07;;;;;;;19.47;15.70;;;14.50;1.00;;;;;;5048265;28;20447;-59
2022/10/24 04:41:33;;;;;;;17.50;15.60;;;14.50;1.00;;;;;;5044701;28;20207;-59
2022/10/24 04:43:58;;;;;;;19.23;15.03;;;14.50;1.00;;;;;;5043390;28;20244;-60
2022/10/24 04:46:24;;;;;;;22.37;15.83;;;14.60;1.00;;;;;;5045500;28;20283;-60
2022/10/24 04:48:49;;;;;;;18.33;14.67;;;14.60;1.00;;;;;;5044674;28;20191;-59
2022/10/24 04:51:15;;;;;;;17.87;13.67;;;14.50;1.00;;;;;;5045722;28;20183;-60
2022/10/24 04:53:40;;;;;;;17.57;14.47;;;14.40;1.00;;;;;;5046208;28;20181;-61
2022/10/24 04:56:06;;;;;;;15.63;13.00;;;14.40;1.00;;;;;;5048626;28;20667;-59
2022/10/24 04:58:32;;;;;;;16.90;12.97;;;14.40;1.00;;;;;;5045997;28;20184;-59
2022/10/24 05:00:58;;;;;;;16.23;12.30;;;14.40;1.00;;;;;;5044888;28;20202;-59
2022/10/24 05:03:23;;;;;;;17.80;14.00;;;14.30;1.00;;;;;;5040909;28;20187;-60
2022/10/24 05:05:49;;;;;;;15.60;12.77;;;14.40;1.00;;;;;;5043816;28;20194;-58
2022/10/24 05:08:15;;;;;;;16.47;13.07;;;14.50;1.00;;;;;;5047090;28;20316;-59
2022/10/24 05:10:41;;;;;;;16.70;13.13;;;14.60;1.00;;;;;;5052394;28;20848;-59
2022/10/24 05:13:06;;;;;;;15.60;12.33;;;14.50;1.00;;;;;;5047634;28;20429;-59
2022/10/24 05:15:32;;;;;;;13.27;11.67;;;14.50;1.00;;;;;;5049957;28;20637;-59
2022/10/24 05:17:58;;;;;;;15.83;12.27;;;14.60;1.00;;;;;;5049173;28;20185;-60
2022/10/24 05:20:24;;;;;;;13.00;11.40;;;14.60;1.00;;;;;;5049041;28;20191;-60
2022/10/24 05:22:49;;;;;;;14.60;12.20;;;14.60;1.00;;;;;;5047302;28;20528;-59
2022/10/24 05:25:15;;;;;;;13.43;10.40;;;14.50;1.00;;;;;;5041873;28;20477;-58
2022/10/24 05:27:40;;;;;;;16.30;11.10;;;14.50;1.00;;;;;;5040122;28;20205;-59
2022/10/24 05:30:07;;;;;;;15.50;11.33;;;14.50;1.00;;;;;;5043899;28;20246;-60
2022/10/24 05:32:33;;;;;;;15.73;11.33;;;14.50;1.00;;;;;;5047278;28;20253;-59
2022/10/24 05:34:58;;;;;;;16.60;11.60;;;14.60;1.00;;;;;;5048980;28;20442;-59
2022/10/24 05:37:24;;;;;;;11.93;10.67;;;14.60;1.00;;;;;;5049159;28;20417;-59
2022/10/24 05:39:52;;;;;;;14.40;11.40;;;14.50;1.00;;;;;;5048125;28;20187;-60
2022/10/24 05:42:18;;;;;;;15.93;10.30;;;14.60;1.00;;;;;;5047657;28;20198;-60
2022/10/24 05:44:44;;;;;;;12.80;10.07;;;14.60;1.00;;;;;;5045483;28;20951;-60
2022/10/24 05:47:09;;;;;;;15.00;10.53;;;14.60;1.00;;;;;;5045683;28;20757;-59
2022/10/24 05:49:35;;;;;;;13.63;10.50;;;14.60;1.00;;;;;;5046502;28;20660;-60
2022/10/24 05:52:01;;;;;;;18.83;10.20;;;14.50;1.00;;;;;;5047590;28;20184;-60
2022/10/24 05:54:27;;;;;;;14.70;10.23;;;14.50;1.00;;;;;;5046913;28;20194;-59
2022/10/24 05:56:52;;;;;;;14.63;10.67;;;14.60;1.00;;;;;;5047927;28;20952;-59
2022/10/24 05:59:18;;;;;;;15.17;10.67;;;14.50;1.00;;;;;;5047383;28;20679;-59
2022/10/24 06:01:44;;;;;;;15.97;11.10;;;14.50;1.00;;;;;;5046306;28;20595;-59
2022/10/24 06:04:09;;;;;;;13.23;11.10;;;14.50;1.00;;;;;;5049243;28;20203;-60
2022/10/24 06:06:39;;;;;;;16.03;10.43;;;14.60;1.00;;;;;;5049147;28;20647;-59
2022/10/24 06:09:05;;;;;;;13.60;9.80;;;14.50;1.00;;;;;;5051268;28;20187;-59
2022/10/24 06:11:31;;;;;;;11.83;10.30;;;14.60;1.00;;;;;;5065447;28;20456;-60
2022/10/24 06:13:56;;;;;;;13.27;10.10;;;14.60;1.00;;;;;;5045321;28;20199;-60
2022/10/24 06:16:23;;;;;;;13.17;9.93;;;14.70;1.00;;;;;;5042453;28;20197;-60
2022/10/24 06:18:49;;;;;;;15.73;10.30;;;14.80;1.00;;;;;;5049301;28;20192;-59
2022/10/24 06:21:15;;;;;;;11.87;9.33;;;14.90;1.00;;;;;;5052266;28;20420;-60
2022/10/24 06:23:41;;;;;;;11.83;10.50;;;14.80;1.00;;;;;;5045720;28;20201;-60
2022/10/24 06:26:09;;;;;;;12.80;9.40;;;14.90;1.00;;;;;;5050349;28;21072;-60
2022/10/24 06:28:35;;;;;;;12.80;9.20;;;15.00;1.00;;;;;;5048097;28;20193;-59
2022/10/24 06:31:02;;;;;;;18.17;10.40;;;15.00;1.00;;;;;;5052417;28;20451;-60
2022/10/24 06:33:28;;;;;;;14.03;9.80;;;15.00;1.00;;;;;;5049122;28;20484;-60
2022/10/24 06:35:54;;;;;;;13.73;10.33;;;15.00;1.00;;;;;;5050072;28;20431;-59
2022/10/24 06:38:19;;;;;;;14.43;9.93;;;15.10;1.00;;;;;;5050299;28;20424;-60
2022/10/24 06:40:45;;;;;;;11.97;8.90;;;15.20;1.00;;;;;;5048637;28;20195;-59
2022/10/24 06:43:10;;;;;;;11.43;9.03;;;15.30;1.00;;;;;;5048610;28;20202;-59
2022/10/24 06:45:37;;;;;;;11.73;8.70;;;15.30;1.00;;;;;;5047559;28;20639;-60
2022/10/24 06:48:03;;;;;;;12.60;9.20;;;15.40;1.00;;;;;;5050471;28;20681;-59
2022/10/24 06:50:28;;;;;;;13.03;8.73;;;15.50;1.00;;;;;;5050942;28;20544;-60
2022/10/24 06:52:54;;;;;;;15.20;9.87;;;15.50;1.00;;;;;;5047353;28;20206;-60
2022/10/24 06:55:20;;;;;;;13.70;8.90;;;15.50;1.00;;;;;;5051298;28;20275;-60
2022/10/24 06:57:45;;;;;;;14.10;9.57;;;15.70;1.00;;;;;;5049916;28;20194;-59
2022/10/24 07:00:13;;;;;;;12.57;9.03;;;15.70;1.00;;;;;;5050146;28;20652;-59
2022/10/24 07:02:39;;;;;;;13.30;9.07;;;15.80;1.00;;;;;;5050539;28;20703;-60
2022/10/24 07:05:08;;;;;;;13.37;8.83;;;15.80;1.00;;;;;;5049174;28;20422;-60
2022/10/24 07:07:33;;;;;;;16.10;9.10;;;15.90;1.00;;;;;;5049312;28;20465;-60
2022/10/24 07:09:59;;;;;;;11.40;8.17;;;16.00;1.00;;;;;;5049455;28;20466;-60
2022/10/24 07:12:25;;;;;;;10.53;9.43;;;16.10;1.00;;;;;;5048230;28;20176;-60
2022/10/24 07:14:51;;;;;;;13.30;8.70;;;16.30;1.00;;;;;;5049311;28;20176;-59
2022/10/24 07:17:17;;;;;;;13.30;8.00;;;16.30;1.00;;;;;;5046672;28;20265;-59
2022/10/24 07:19:43;;;;;;;16.53;9.03;;;16.50;1.00;;;;;;5048096;28;20525;-60
2022/10/24 07:22:09;;;;;;;12.73;7.70;;;16.60;1.00;;;;;;5046352;28;20507;-59
2022/10/24 07:24:34;;;;;;;16.00;9.00;;;16.70;1.00;;;;;;5050769;28;20179;-59
2022/10/24 07:27:00;;;;;;;12.33;8.30;;;16.80;1.00;;;;;;5049519;28;20224;-59
2022/10/24 07:29:26;;;;;;;12.27;8.87;;;16.90;1.00;;;;;;5043858;28;21014;-59
2022/10/24 07:31:51;;;;;;;12.30;9.40;;;17.10;1.00;;;;;;5046707;28;20656;-61
2022/10/24 07:34:17;;;;;;;10.83;8.10;;;17.30;1.00;;;;;;5045318;28;20290;-57
2022/10/24 07:36:43;;;;;;;11.20;7.33;;;17.30;1.00;;;;;;5048755;28;20537;-58
2022/10/24 07:39:08;;;;;;;11.00;8.60;;;17.20;1.00;;;;;;5049419;28;20186;-61
2022/10/24 07:41:38;;;;;;;11.30;7.90;;;17.20;1.00;;;;;;5049257;28;20195;-61
2022/10/24 07:44:03;;;;;;;10.07;7.90;;;17.10;1.00;;;;;;5046070;28;20365;-59
2022/10/24 07:46:29;;;;;;;14.33;9.03;;;17.10;1.00;;;;;;5045205;28;20538;-60
2022/10/24 07:48:55;;;;;;;9.80;8.80;;;17.00;1.00;;;;;;5061402;28;20223;-59
2022/10/24 07:51:21;;;;;;;11.20;7.83;;;17.00;1.00;;;;;;5052926;28;20738;-60
2022/10/24 07:53:47;;;;;;;14.53;8.47;;;17.10;1.00;;;;;;5049931;28;20187;-59
2022/10/24 07:56:14;;;;;;;10.50;7.73;;;17.20;1.00;;;;;;5058801;28;20458;-61
2022/10/24 07:58:41;;;;;;;14.73;8.23;;;17.30;1.00;;;;;;5047819;28;20208;-59
2022/10/24 08:01:13;;;;;;;12.23;7.83;;;17.50;1.00;;;;;;5048859;28;20847;-59
2022/10/24 08:03:39;;;;;;;10.37;8.27;;;17.70;1.00;;;;;;5047632;28;20458;-60
2022/10/24 08:06:11;;;;;;;8.77;7.20;;;17.80;1.00;;;;;;5047678;28;20449;-60
2022/10/24 08:08:37;;;;;;;10.00;7.43;;;17.90;1.00;;;;;;5067866;28;20411;-61
2022/10/24 08:11:08;;;;;;;9.17;8.00;;;17.90;1.00;;;;;;5045900;28;20449;-60
2022/10/24 08:13:34;;;;;;;9.67;7.70;;;18.00;1.00;;;;;;5049933;28;20183;-59
2022/10/24 08:16:00;;;;;;;12.27;7.67;;;18.00;1.00;;;;;;5045365;28;20506;-59
2022/10/24 08:18:25;;;;;;;10.70;8.37;;;17.90;1.00;;;;;;5045073;28;20456;-59
2022/10/24 08:20:58;;;;;;;14.63;7.80;;;18.00;1.00;;;;;;5040400;28;20232;-59
2022/10/24 08:23:24;;;;;;;9.83;8.10;;;18.10;1.00;;;;;;5049228;28;20186;-58
2022/10/24 08:25:50;;;;;;;11.37;7.70;;;18.20;1.00;;;;;;5049840;28;20751;-59
2022/10/24 08:28:15;;;;;;;11.23;7.10;;;18.00;1.00;;;;;;5062096;28;20455;-59
2022/10/24 08:30:41;;;;;;;10.90;8.50;;;18.00;1.00;;;;;;5048513;28;20241;-61
2022/10/24 08:33:07;;;;;;;11.23;8.40;;;18.10;1.00;;;;;;5053973;28;20191;-60
2022/10/24 08:35:32;;;;;;;8.43;6.83;;;18.00;1.00;;;;;;5052020;28;20220;-59
2022/10/24 08:38:00;;;;;;;11.50;7.70;;;18.00;1.00;;;;;;5046954;28;20193;-58
2022/10/24 08:40:26;;;;;;;9.13;7.40;;;18.10;1.00;;;;;;5045252;28;20186;-60
2022/10/24 08:42:51;;;;;;;11.20;8.57;;;18.20;1.00;;;;;;5062961;28;20523;-60
2022/10/24 08:45:37;;;;;;;10.37;7.60;;;18.20;1.00;;;;;;5048200;28;20560;-60
2022/10/24 08:48:07;;;;;;;11.00;8.50;;;18.30;1.00;;;;;;5048040;28;20726;-59
2022/10/24 08:50:35;;;;;;;10.90;8.50;;;18.30;1.00;;;;;;5043306;28;20456;-60
2022/10/24 08:53:13;;;;;;;13.47;8.10;;;18.30;1.00;;;;;;5041702;28;20441;-59
2022/10/24 08:55:42;;;;;;;11.50;7.93;;;18.40;1.00;;;;;;5043761;28;20446;-59
2022/10/24 08:58:15;;;;;;;10.97;7.27;;;18.40;1.00;;;;;;5047377;28;21003;-60
2022/10/24 09:00:44;;;;;;;8.50;7.30;;;18.50;1.00;;;;;;5046903;28;20439;-59
2022/10/24 09:03:34;;;;;;;12.47;6.90;;;18.60;1.00;;;;;;5046786;28;20489;-60
2022/10/24 09:06:12;;;;;;;12.67;8.07;;;18.80;1.00;;;;;;5046761;28;20446;-60
2022/10/24 09:08:52;;;;;;;9.70;7.10;;;19.00;1.00;;;;;;5040415;28;20495;-59
2022/10/24 09:11:39;;;;;;;10.60;6.30;;;19.10;1.00;;;;;;5045955;28;20447;-59
2022/10/24 09:14:20;;;;;;;13.87;7.90;;;19.30;1.00;;;;;;5052511;28;20416;-59
2022/10/24 09:16:53;;;;;;;11.93;7.70;;;19.50;1.00;;;;;;5053043;28;20453;-59
2022/10/24 09:19:22;;;;;;;12.57;7.57;;;19.50;1.00;;;;;;5046405;28;20781;-60
2022/10/24 09:21:49;;;;;;;9.10;6.50;;;19.50;1.00;;;;;;5048934;28;20987;-60
2022/10/24 09:24:38;;;;;;;7.10;6.30;;;19.60;1.00;;;;;;5048332;28;20455;-59
2022/10/24 09:27:09;;;;;;;8.30;6.73;;;19.70;1.00;;;;;;5047447;28;20469;-61
2022/10/24 09:29:35;;;;;;;11.37;7.70;;;19.60;1.00;;;;;;5049015;28;20440;-61
2022/10/24 09:32:01;;;;;;;7.67;6.30;;;19.60;1.00;;;;;;5055760;28;20951;-60
2022/10/24 09:34:26;;;;;;;9.10;6.43;;;19.50;1.00;;;;;;5048884;28;20190;-61
2022/10/24 09:36:52;;;;;;;7.00;6.23;;;19.50;1.00;;;;;;5045039;28;20423;-60
2022/10/24 09:39:33;;;;;;;12.07;6.73;;;19.50;1.00;;;;;;5047424;28;20260;-60
2022/10/24 09:42:00;;;;;;;10.53;7.03;;;19.30;1.00;;;;;;5056534;28;20193;-59
2022/10/24 09:44:39;;;;;;;9.03;6.60;;;19.20;1.00;;;;;;5044839;28;20485;-59
2022/10/24 09:47:18;;;;;;;10.93;7.20;;;19.10;1.00;;;;;;5048368;28;20466;-60
2022/10/24 09:49:45;;;;;;;8.07;6.60;;;19.10;1.00;;;;;;5050728;28;20450;-60
2022/10/24 09:52:19;;;;;;;9.20;6.97;;;19.10;1.00;;;;;;5046715;28;20475;-59
2022/10/24 09:54:46;;;;;;;9.33;6.83;;;19.10;1.00;;;;;;5052384;28;20485;-60
2022/10/24 09:57:11;;;;;;;13.60;6.50;;;19.30;1.00;;;;;;5053348;28;20782;-60
2022/10/24 09:59:43;;;;;;;8.93;7.13;;;19.50;1.00;;;;;;5051372;28;20463;-59
2022/10/24 10:02:20;;;;;;;10.87;6.70;;;19.70;1.00;;;;;;5046362;28;20178;-59
2022/10/24 10:05:06;;;;;;;9.10;6.77;;;20.10;1.00;;;;;;5050869;28;20490;-60
2022/10/24 10:07:35;;;;;;;11.83;7.00;;;20.10;1.00;;;;;;5064564;28;20906;-60
2022/10/24 10:10:29;;;;;;;7.93;6.37;;;20.20;1.00;;;;;;5054279;28;20461;-60
2022/10/24 10:13:27;;;;;;;8.23;7.37;;;20.30;1.00;;;;;;5047732;28;20410;-61
2022/10/24 10:15:56;;;;;;;7.03;6.33;;;20.40;1.00;;;;;;5046923;28;20443;-59
2022/10/24 10:18:31;;;;;;;11.77;6.27;;;20.50;1.00;;;;;;5047788;28;20424;-60
2022/10/24 10:21:22;;;;;;;11.23;6.17;;;20.50;1.00;;;;;;5054503;28;20400;-60
2022/10/24 10:23:55;;;;;;;6.97;6.07;;;20.70;1.00;;;;;;5048450;28;20486;-60
2022/10/24 10:26:23;;;;;;;10.93;6.90;;;20.70;1.00;;;;;;5050780;28;20551;-61
2022/10/24 10:28:52;;;;;;;7.90;6.00;;;20.80;1.00;;;;;;5046372;28;21118;-59
2022/10/24 10:31:26;;;;;;;9.60;6.53;;;21.00;1.00;;;;;;5051614;28;20417;-60
2022/10/24 10:34:15;;;;;;;9.63;6.80;;;21.10;1.00;;;;;;5050108;28;20724;-60
2022/10/24 10:37:07;;;;;;;7.90;5.50;;;21.10;1.00;;;;;;5043726;28;20445;-60
2022/10/24 10:39:41;;;;;;;10.33;6.13;;;21.20;1.00;;;;;;5058836;28;20451;-60
2022/10/24 10:42:35;;;;;;;9.10;5.93;;;21.10;1.00;;;;;;5049725;28;20529;-61
2022/10/24 10:45:19;;;;;;;8.50;5.83;;;21.20;1.00;;;;;;5032882;28;20526;-60
2022/10/24 10:48:27;;;;;;;7.43;5.80;;;21.00;1.00;;;;;;5051531;28;20464;-60
2022/10/24 10:51:02;;;;;;;7.70;6.07;;;20.70;1.00;;;;;;5049224;28;20449;-59
2022/10/24 10:53:53;;;;;;;8.43;5.47;;;20.40;1.00;;;;;;5051446;28;21006;-59
2022/10/24 10:56:27;;;;;;;9.70;5.90;;;20.40;1.00;;;;;;5053066;28;20613;-60
2022/10/24 10:59:11;;;;;;;7.83;5.70;;;20.30;1.00;;;;;;5049577;28;20956;-60
2022/10/24 11:01:48;;;;;;;12.13;6.00;;;20.20;1.00;;;;;;5049632;28;20452;-60
2022/10/24 11:04:43;;;;;;;9.03;5.77;;;20.20;1.00;;;;;;5050750;28;20439;-60
2022/10/24 11:07:33;;;;;;;9.03;5.03;;;20.20;1.00;;;;;;5044463;28;20492;-60
2022/10/24 11:10:06;;;;;;;8.60;5.13;;;20.20;1.00;;;;;;5051475;28;20433;-60
2022/10/24 11:12:36;;;;;;;6.43;4.37;;;20.10;1.00;;;;;;5048570;28;21017;-61
2022/10/24 11:15:06;;;;;;;6.40;4.70;;;20.10;1.00;;;;;;5049777;28;20506;-60
2022/10/24 11:17:53;;;;;;;8.23;4.60;;;20.10;1.00;;;;;;5049370;28;20967;-60
2022/10/24 11:20:24;;;;;;;6.73;4.57;;;20.10;1.00;;;;;;5050996;28;20475;-60
2022/10/24 11:23:15;;;;;;;11.03;4.07;;;20.10;1.00;;;;;;5054992;28;20798;-60
2022/10/24 11:25:56;;;;;;;7.20;4.33;;;20.20;1.00;;;;;;5056791;28;20428;-61
2022/10/24 11:29:13;;;;;;;6.60;4.10;;;20.20;1.00;;;;;;5047838;28;21050;-59
2022/10/24 11:31:47;;;;;;;5.27;3.60;;;20.40;1.00;;;;;;5013029;28;20474;-59
2022/10/24 11:34:44;;;;;;;7.03;4.23;;;20.40;1.00;;;;;;5048887;28;20536;-59
2022/10/24 11:37:28;;;;;;;7.10;4.93;;;20.30;1.00;;;;;;5049880;28;20462;-59
2022/10/24 11:39:58;;;;;;;8.03;4.97;;;20.30;1.00;;;;;;5049833;28;20608;-60
2022/10/24 11:42:33;;;;;;;8.47;5.57;;;20.20;1.00;;;;;;5049546;28;20449;-60
2022/10/24 11:45:10;;;;;;;8.33;5.07;;;20.20;1.00;;;;;;5047999;28;20504;-60
2022/10/24 11:47:48;;;;;;;9.87;3.70;;;20.30;1.00;;;;;;5051749;28;20948;-59
2022/10/24 11:50:47;;;;;;;11.63;3.80;;;20.10;1.00;;;;;;5050891;28;20432;-60
2022/10/24 11:53:30;;;;;;;6.00;3.00;;;20.20;1.00;;;;;;5046742;28;20441;-59
2022/10/24 11:56:01;;;;;;;5.30;3.20;;;20.20;1.00;;;;;;5047931;28;20531;-59
2022/10/24 11:58:28;;;;;;;7.90;3.40;;;20.20;1.00;;;;;;5045094;28;20816;-59
2022/10/24 12:01:07;;;;;;;11.03;4.37;;;20.20;1.00;;;;;;5050425;28;20430;-59
2022/10/24 12:03:35;;;;;;;5.63;2.80;;;20.20;1.00;;;;;;5046405;28;20455;-61
2022/10/24 12:06:32;;;;;;;6.70;3.70;;;20.40;1.00;;;;;;5049731;28;20399;-60
2022/10/24 12:09:32;;;;;;;8.47;4.30;;;20.40;1.00;;;;;;5048483;28;20448;-61
2022/10/24 12:12:42;;;;;;;5.47;4.00;;;20.50;1.00;;;;;;5046435;28;20455;-60
2022/10/24 12:15:10;;;;;;;5.67;4.17;;;20.30;1.00;;;;;;5040839;28;20535;-60
2022/10/24 12:17:58;;;;;;;11.90;5.10;;;20.40;1.00;;;;;;5048020;28;20422;-59
2022/10/24 12:20:25;;;;;;;5.40;3.10;;;20.30;1.00;;;;;;5047737;28;20459;-60
2022/10/24 12:22:52;;;;;;;8.10;4.00;;;20.40;1.00;;;;;;5044772;28;20459;-61
2022/10/24 12:25:19;;;;;;;6.53;3.20;;;20.60;1.00;;;;;;5049260;28;20451;-59
2022/10/24 12:27:53;;;;;;;5.20;3.20;;;20.60;1.00;;;;;;5048894;28;20462;-60
2022/10/24 12:30:23;;;;;;;6.73;3.67;;;20.60;1.00;;;;;;5048630;28;20447;-59
2022/10/24 12:32:56;;;;;;;4.10;3.00;;;20.60;1.00;;;;;;5045509;28;20546;-59
2022/10/24 12:35:30;;;;;;;7.53;4.47;;;20.50;1.00;;;;;;5053700;28;20979;-59
2022/10/24 12:37:56;;;;;;;6.80;3.50;;;20.40;1.00;;;;;;5045632;28;20489;-63
2022/10/24 12:40:44;;;;;;;6.27;3.67;;;20.30;1.00;;;;;;5053779;28;20459;-59
2022/10/24 12:43:44;;;;;;;5.40;3.33;;;20.30;1.00;;;;;;5050783;28;20495;-59
2022/10/24 12:46:16;;;;;;;17.83;5.00;;;20.20;1.00;;;;;;5047927;28;20819;-60
2022/10/24 12:48:57;;;;;;;8.33;4.10;;;18.60;1.00;;;;;;5052155;28;20478;-59
2022/10/24 12:51:30;;;;;;;6.40;4.50;;;20.20;1.00;;;;;;5046196;28;20892;-60
2022/10/24 12:54:10;;;;;;;6.70;4.10;;;20.30;1.00;;;;;;5047698;28;20437;-60
2022/10/24 12:56:58;;;;;;;7.27;5.40;;;20.30;1.00;;;;;;5046684;28;20508;-61
2022/10/24 12:59:43;;;;;;;11.37;4.03;;;20.40;1.00;;;;;;5048796;28;20940;-60
2022/10/24 13:02:12;;;;;;;11.77;3.57;;;20.50;1.00;;;;;;5049185;28;20529;-60
2022/10/24 13:05:05;;;;;;;5.20;2.83;;;20.50;1.00;;;;;;5048678;28;20707;-59
2022/10/24 13:07:57;;;;;;;7.57;3.90;;;20.40;1.00;;;;;;5046915;28;20445;-58